sensor_id;sensor_type;location;lat;lon;timestamp;P1;durP1;ratioP1;P2;durP2;ratioP2
49310;SDS011;35177;45.900;5.946;2023-11-19T00:02:12;23.70;;;13.38;;
49310;SDS011;35177;45.900;5.946;2023-11-19T00:04:38;22.67;;;14.75;;
49310;SDS011;35177;45.900;5.946;2023-11-19T00:07:06;44.13;;;18.38;;
49310;SDS011;35177;45.900;5.946;2023-11-19T00:09:33;52.60;;;21.08;;
49310;SDS011;35177;45.900;5.946;2023-11-19T00:11:59;44.95;;;21.38;;
49310;SDS011;35177;45.900;5.946;2023-11-19T00:14:25;27.77;;;17.45;;
49310;SDS011;35177;45.900;5.946;2023-11-19T00:16:51;26.77;;;17.42;;
49310;SDS011;35177;45.900;5.946;2023-11-19T00:19:17;24.58;;;16.63;;
49310;SDS011;35177;45.900;5.946;2023-11-19T00:21:42;29.92;;;18.35;;
49310;SDS011;35177;45.900;5.946;2023-11-19T00:24:08;28.23;;;18.08;;
49310;SDS011;35177;45.900;5.946;2023-11-19T00:26:33;30.40;;;19.38;;
49310;SDS011;35177;45.900;5.946;2023-11-19T00:28:59;26.98;;;17.55;;
49310;SDS011;35177;45.900;5.946;2023-11-19T00:31:25;28.20;;;18.05;;
49310;SDS011;35177;45.900;5.946;2023-11-19T00:33:52;27.67;;;16.63;;
49310;SDS011;35177;45.900;5.946;2023-11-19T00:36:18;23.80;;;15.73;;
49310;SDS011;35177;45.900;5.946;2023-11-19T00:38:43;24.92;;;15.40;;
49310;SDS011;35177;45.900;5.946;2023-11-19T00:41:09;25.98;;;15.77;;
49310;SDS011;35177;45.900;5.946;2023-11-19T00:43:35;23.95;;;15.75;;
49310;SDS011;35177;45.900;5.946;2023-11-19T00:46:01;21.70;;;14.80;;
49310;SDS011;35177;45.900;5.946;2023-11-19T00:48:27;23.08;;;14.43;;
49310;SDS011;35177;45.900;5.946;2023-11-19T00:50:53;22.98;;;15.18;;
49310;SDS011;35177;45.900;5.946;2023-11-19T00:53:18;23.23;;;14.77;;
49310;SDS011;35177;45.900;5.946;2023-11-19T00:55:44;24.77;;;16.20;;
49310;SDS011;35177;45.900;5.946;2023-11-19T00:58:09;23.00;;;14.52;;
49310;SDS011;35177;45.900;5.946;2023-11-19T01:00:35;21.05;;;14.10;;
49310;SDS011;35177;45.900;5.946;2023-11-19T01:03:00;22.25;;;14.80;;
49310;SDS011;35177;45.900;5.946;2023-11-19T01:05:26;25.73;;;15.60;;
49310;SDS011;35177;45.900;5.946;2023-11-19T01:07:53;27.77;;;15.20;;
49310;SDS011;35177;45.900;5.946;2023-11-19T01:10:19;25.73;;;14.80;;
49310;SDS011;35177;45.900;5.946;2023-11-19T01:12:45;27.65;;;13.82;;
49310;SDS011;35177;45.900;5.946;2023-11-19T01:15:11;25.60;;;14.48;;
49310;SDS011;35177;45.900;5.946;2023-11-19T01:17:39;22.23;;;13.38;;
49310;SDS011;35177;45.900;5.946;2023-11-19T01:20:05;23.88;;;14.23;;
49310;SDS011;35177;45.900;5.946;2023-11-19T01:22:31;23.23;;;14.23;;
49310;SDS011;35177;45.900;5.946;2023-11-19T01:24:57;22.42;;;14.32;;
49310;SDS011;35177;45.900;5.946;2023-11-19T01:27:23;21.77;;;14.07;;
49310;SDS011;35177;45.900;5.946;2023-11-19T01:29:49;22.90;;;14.38;;
49310;SDS011;35177;45.900;5.946;2023-11-19T01:32:15;23.27;;;13.90;;
49310;SDS011;35177;45.900;5.946;2023-11-19T01:34:40;25.38;;;14.98;;
49310;SDS011;35177;45.900;5.946;2023-11-19T01:37:06;24.88;;;14.88;;
49310;SDS011;35177;45.900;5.946;2023-11-19T01:39:31;20.92;;;14.90;;
49310;SDS011;35177;45.900;5.946;2023-11-19T01:41:57;19.05;;;13.57;;
49310;SDS011;35177;45.900;5.946;2023-11-19T01:44:22;23.02;;;14.63;;
49310;SDS011;35177;45.900;5.946;2023-11-19T01:46:47;21.45;;;14.98;;
49310;SDS011;35177;45.900;5.946;2023-11-19T01:49:17;24.08;;;15.52;;
49310;SDS011;35177;45.900;5.946;2023-11-19T01:51:44;23.42;;;15.25;;
49310;SDS011;35177;45.900;5.946;2023-11-19T01:54:10;23.60;;;14.75;;
49310;SDS011;35177;45.900;5.946;2023-11-19T01:56:37;26.15;;;15.55;;
49310;SDS011;35177;45.900;5.946;2023-11-19T01:59:05;24.17;;;16.25;;
49310;SDS011;35177;45.900;5.946;2023-11-19T02:01:32;26.10;;;16.67;;
49310;SDS011;35177;45.900;5.946;2023-11-19T02:04:03;24.25;;;15.07;;
49310;SDS011;35177;45.900;5.946;2023-11-19T02:06:29;25.70;;;16.25;;
49310;SDS011;35177;45.900;5.946;2023-11-19T02:08:57;23.83;;;16.05;;
49310;SDS011;35177;45.900;5.946;2023-11-19T02:11:23;25.33;;;16.70;;
49310;SDS011;35177;45.900;5.946;2023-11-19T02:13:54;24.42;;;16.25;;
49310;SDS011;35177;45.900;5.946;2023-11-19T02:16:20;23.13;;;16.13;;
49310;SDS011;35177;45.900;5.946;2023-11-19T02:18:45;24.00;;;15.15;;
49310;SDS011;35177;45.900;5.946;2023-11-19T02:21:10;22.17;;;15.52;;
49310;SDS011;35177;45.900;5.946;2023-11-19T02:23:36;23.20;;;15.27;;
49310;SDS011;35177;45.900;5.946;2023-11-19T02:26:18;23.95;;;16.10;;
49310;SDS011;35177;45.900;5.946;2023-11-19T02:28:58;24.52;;;15.63;;
49310;SDS011;35177;45.900;5.946;2023-11-19T02:31:23;24.33;;;15.75;;
49310;SDS011;35177;45.900;5.946;2023-11-19T02:33:49;23.73;;;15.27;;
49310;SDS011;35177;45.900;5.946;2023-11-19T02:36:15;23.17;;;14.23;;
49310;SDS011;35177;45.900;5.946;2023-11-19T02:38:41;26.42;;;16.85;;
49310;SDS011;35177;45.900;5.946;2023-11-19T02:41:07;24.52;;;14.68;;
49310;SDS011;35177;45.900;5.946;2023-11-19T02:43:33;22.42;;;14.82;;
49310;SDS011;35177;45.900;5.946;2023-11-19T02:46:02;21.13;;;14.25;;
49310;SDS011;35177;45.900;5.946;2023-11-19T02:48:32;24.05;;;14.38;;
49310;SDS011;35177;45.900;5.946;2023-11-19T02:51:00;21.00;;;14.27;;
49310;SDS011;35177;45.900;5.946;2023-11-19T02:53:26;21.48;;;13.75;;
49310;SDS011;35177;45.900;5.946;2023-11-19T02:55:54;18.83;;;13.43;;
49310;SDS011;35177;45.900;5.946;2023-11-19T02:58:26;23.60;;;14.88;;
49310;SDS011;35177;45.900;5.946;2023-11-19T03:00:53;20.15;;;13.30;;
49310;SDS011;35177;45.900;5.946;2023-11-19T03:03:24;22.30;;;15.10;;
49310;SDS011;35177;45.900;5.946;2023-11-19T03:05:53;21.30;;;13.20;;
49310;SDS011;35177;45.900;5.946;2023-11-19T03:08:20;19.35;;;13.55;;
49310;SDS011;35177;45.900;5.946;2023-11-19T03:10:45;22.90;;;14.98;;
49310;SDS011;35177;45.900;5.946;2023-11-19T03:13:12;20.92;;;14.25;;
49310;SDS011;35177;45.900;5.946;2023-11-19T03:15:44;23.10;;;14.73;;
49310;SDS011;35177;45.900;5.946;2023-11-19T03:18:10;21.42;;;14.27;;
49310;SDS011;35177;45.900;5.946;2023-11-19T03:20:35;19.52;;;13.27;;
49310;SDS011;35177;45.900;5.946;2023-11-19T03:23:00;24.15;;;15.07;;
49310;SDS011;35177;45.900;5.946;2023-11-19T03:25:27;21.58;;;13.70;;
49310;SDS011;35177;45.900;5.946;2023-11-19T03:27:58;20.90;;;13.65;;
49310;SDS011;35177;45.900;5.946;2023-11-19T03:30:24;20.17;;;12.60;;
49310;SDS011;35177;45.900;5.946;2023-11-19T03:32:50;17.63;;;11.68;;
49310;SDS011;35177;45.900;5.946;2023-11-19T03:35:15;17.75;;;11.55;;
49310;SDS011;35177;45.900;5.946;2023-11-19T03:37:40;19.65;;;12.48;;
49310;SDS011;35177;45.900;5.946;2023-11-19T03:40:06;18.40;;;12.18;;
49310;SDS011;35177;45.900;5.946;2023-11-19T03:42:32;19.75;;;12.35;;
49310;SDS011;35177;45.900;5.946;2023-11-19T03:44:57;16.60;;;10.85;;
49310;SDS011;35177;45.900;5.946;2023-11-19T03:47:23;15.63;;;10.85;;
49310;SDS011;35177;45.900;5.946;2023-11-19T03:49:49;16.90;;;10.35;;
49310;SDS011;35177;45.900;5.946;2023-11-19T03:52:15;15.15;;;10.73;;
49310;SDS011;35177;45.900;5.946;2023-11-19T03:54:41;20.50;;;12.85;;
49310;SDS011;35177;45.900;5.946;2023-11-19T03:57:06;17.83;;;12.27;;
49310;SDS011;35177;45.900;5.946;2023-11-19T03:59:32;23.48;;;12.85;;
49310;SDS011;35177;45.900;5.946;2023-11-19T04:01:58;17.95;;;12.25;;
49310;SDS011;35177;45.900;5.946;2023-11-19T04:04:25;23.10;;;13.90;;
49310;SDS011;35177;45.900;5.946;2023-11-19T04:06:52;21.13;;;14.18;;
49310;SDS011;35177;45.900;5.946;2023-11-19T04:09:17;24.40;;;13.73;;
49310;SDS011;35177;45.900;5.946;2023-11-19T04:11:43;19.50;;;13.40;;
49310;SDS011;35177;45.900;5.946;2023-11-19T04:14:08;20.02;;;13.80;;
49310;SDS011;35177;45.900;5.946;2023-11-19T04:16:35;19.13;;;12.98;;
49310;SDS011;35177;45.900;5.946;2023-11-19T04:19:00;21.30;;;13.02;;
49310;SDS011;35177;45.900;5.946;2023-11-19T04:21:26;20.10;;;13.05;;
49310;SDS011;35177;45.900;5.946;2023-11-19T04:23:52;19.80;;;13.23;;
49310;SDS011;35177;45.900;5.946;2023-11-19T04:26:17;18.90;;;12.85;;
49310;SDS011;35177;45.900;5.946;2023-11-19T04:28:42;19.13;;;12.77;;
49310;SDS011;35177;45.900;5.946;2023-11-19T04:31:08;16.90;;;12.30;;
49310;SDS011;35177;45.900;5.946;2023-11-19T04:33:34;19.73;;;12.75;;
49310;SDS011;35177;45.900;5.946;2023-11-19T04:35:59;19.27;;;12.77;;
49310;SDS011;35177;45.900;5.946;2023-11-19T04:38:25;19.98;;;14.10;;
49310;SDS011;35177;45.900;5.946;2023-11-19T04:40:51;17.77;;;12.55;;
49310;SDS011;35177;45.900;5.946;2023-11-19T04:43:17;21.20;;;13.15;;
49310;SDS011;35177;45.900;5.946;2023-11-19T04:45:42;21.20;;;13.70;;
49310;SDS011;35177;45.900;5.946;2023-11-19T04:48:08;21.40;;;14.68;;
49310;SDS011;35177;45.900;5.946;2023-11-19T04:50:34;20.33;;;13.70;;
49310;SDS011;35177;45.900;5.946;2023-11-19T04:52:59;19.58;;;13.27;;
49310;SDS011;35177;45.900;5.946;2023-11-19T04:55:25;23.83;;;13.48;;
49310;SDS011;35177;45.900;5.946;2023-11-19T04:57:50;21.88;;;12.93;;
49310;SDS011;35177;45.900;5.946;2023-11-19T05:00:18;20.50;;;13.02;;
49310;SDS011;35177;45.900;5.946;2023-11-19T05:02:44;35.60;;;13.73;;
49310;SDS011;35177;45.900;5.946;2023-11-19T05:05:10;19.13;;;12.48;;
49310;SDS011;35177;45.900;5.946;2023-11-19T05:07:35;21.98;;;13.57;;
49310;SDS011;35177;45.900;5.946;2023-11-19T05:10:01;19.38;;;13.52;;
49310;SDS011;35177;45.900;5.946;2023-11-19T05:12:26;19.48;;;12.60;;
49310;SDS011;35177;45.900;5.946;2023-11-19T05:14:52;19.38;;;13.00;;
49310;SDS011;35177;45.900;5.946;2023-11-19T05:17:17;21.27;;;13.48;;
49310;SDS011;35177;45.900;5.946;2023-11-19T05:19:43;18.52;;;12.75;;
49310;SDS011;35177;45.900;5.946;2023-11-19T05:22:09;20.33;;;13.35;;
49310;SDS011;35177;45.900;5.946;2023-11-19T05:24:34;17.55;;;13.07;;
49310;SDS011;35177;45.900;5.946;2023-11-19T05:27:00;19.15;;;12.43;;
49310;SDS011;35177;45.900;5.946;2023-11-19T05:29:26;20.67;;;12.43;;
49310;SDS011;35177;45.900;5.946;2023-11-19T05:31:52;18.60;;;12.43;;
49310;SDS011;35177;45.900;5.946;2023-11-19T05:34:17;19.13;;;12.57;;
49310;SDS011;35177;45.900;5.946;2023-11-19T05:36:43;17.65;;;11.98;;
49310;SDS011;35177;45.900;5.946;2023-11-19T05:39:08;17.77;;;11.50;;
49310;SDS011;35177;45.900;5.946;2023-11-19T05:41:34;17.17;;;12.20;;
49310;SDS011;35177;45.900;5.946;2023-11-19T05:43:59;16.83;;;12.00;;
49310;SDS011;35177;45.900;5.946;2023-11-19T05:46:24;17.08;;;12.05;;
49310;SDS011;35177;45.900;5.946;2023-11-19T05:48:52;17.98;;;11.90;;
49310;SDS011;35177;45.900;5.946;2023-11-19T05:51:17;15.43;;;10.98;;
49310;SDS011;35177;45.900;5.946;2023-11-19T05:53:43;17.85;;;11.27;;
49310;SDS011;35177;45.900;5.946;2023-11-19T05:56:10;15.70;;;11.15;;
49310;SDS011;35177;45.900;5.946;2023-11-19T05:58:36;15.00;;;11.38;;
49310;SDS011;35177;45.900;5.946;2023-11-19T06:01:02;19.50;;;11.98;;
49310;SDS011;35177;45.900;5.946;2023-11-19T06:03:28;16.15;;;11.07;;
49310;SDS011;35177;45.900;5.946;2023-11-19T06:05:54;17.63;;;12.07;;
49310;SDS011;35177;45.900;5.946;2023-11-19T06:08:19;17.67;;;12.18;;
49310;SDS011;35177;45.900;5.946;2023-11-19T06:10:45;16.58;;;11.70;;
49310;SDS011;35177;45.900;5.946;2023-11-19T06:13:12;17.02;;;11.13;;
49310;SDS011;35177;45.900;5.946;2023-11-19T06:15:40;16.23;;;11.35;;
49310;SDS011;35177;45.900;5.946;2023-11-19T06:18:11;15.25;;;11.13;;
49310;SDS011;35177;45.900;5.946;2023-11-19T06:20:37;15.00;;;10.68;;
49310;SDS011;35177;45.900;5.946;2023-11-19T06:23:03;16.83;;;11.18;;
49310;SDS011;35177;45.900;5.946;2023-11-19T06:25:28;15.25;;;10.65;;
49310;SDS011;35177;45.900;5.946;2023-11-19T06:27:54;18.90;;;12.00;;
49310;SDS011;35177;45.900;5.946;2023-11-19T06:30:19;19.20;;;11.90;;
49310;SDS011;35177;45.900;5.946;2023-11-19T06:32:45;17.67;;;10.82;;
49310;SDS011;35177;45.900;5.946;2023-11-19T06:35:11;17.00;;;11.73;;
49310;SDS011;35177;45.900;5.946;2023-11-19T06:37:38;18.20;;;12.07;;
49310;SDS011;35177;45.900;5.946;2023-11-19T06:40:05;20.83;;;11.55;;
49310;SDS011;35177;45.900;5.946;2023-11-19T06:42:31;16.75;;;12.38;;
49310;SDS011;35177;45.900;5.946;2023-11-19T06:44:56;16.60;;;12.00;;
49310;SDS011;35177;45.900;5.946;2023-11-19T06:47:25;16.27;;;11.38;;
49310;SDS011;35177;45.900;5.946;2023-11-19T06:49:52;15.05;;;11.43;;
49310;SDS011;35177;45.900;5.946;2023-11-19T07:00:55;17.05;;;11.77;;
49310;SDS011;35177;45.900;5.946;2023-11-19T07:03:20;19.13;;;11.88;;
49310;SDS011;35177;45.900;5.946;2023-11-19T07:05:46;16.05;;;11.15;;
49310;SDS011;35177;45.900;5.946;2023-11-19T07:08:12;16.60;;;12.40;;
49310;SDS011;35177;45.900;5.946;2023-11-19T07:10:37;15.38;;;10.75;;
49310;SDS011;35177;45.900;5.946;2023-11-19T07:13:03;15.82;;;11.10;;
49310;SDS011;35177;45.900;5.946;2023-11-19T07:15:30;16.80;;;10.63;;
49310;SDS011;35177;45.900;5.946;2023-11-19T07:17:57;15.02;;;11.38;;
49310;SDS011;35177;45.900;5.946;2023-11-19T07:20:28;19.83;;;11.80;;
49310;SDS011;35177;45.900;5.946;2023-11-19T07:22:56;14.95;;;11.00;;
49310;SDS011;35177;45.900;5.946;2023-11-19T07:25:21;17.33;;;11.23;;
49310;SDS011;35177;45.900;5.946;2023-11-19T07:27:47;16.48;;;12.00;;
49310;SDS011;35177;45.900;5.946;2023-11-19T07:30:13;38.63;;;23.73;;
49310;SDS011;35177;45.900;5.946;2023-11-19T07:32:38;21.50;;;14.77;;
49310;SDS011;35177;45.900;5.946;2023-11-19T07:35:04;17.15;;;11.68;;
49310;SDS011;35177;45.900;5.946;2023-11-19T07:37:30;16.77;;;12.30;;
49310;SDS011;35177;45.900;5.946;2023-11-19T07:39:57;17.95;;;12.90;;
49310;SDS011;35177;45.900;5.946;2023-11-19T07:42:24;18.02;;;13.82;;
49310;SDS011;35177;45.900;5.946;2023-11-19T07:44:50;19.13;;;13.57;;
49310;SDS011;35177;45.900;5.946;2023-11-19T07:47:15;16.35;;;11.52;;
49310;SDS011;35177;45.900;5.946;2023-11-19T07:49:41;14.23;;;10.45;;
49310;SDS011;35177;45.900;5.946;2023-11-19T07:52:08;15.27;;;10.50;;
49310;SDS011;35177;45.900;5.946;2023-11-19T07:54:34;12.43;;;9.85;;
49310;SDS011;35177;45.900;5.946;2023-11-19T07:56:59;15.88;;;10.90;;
49310;SDS011;35177;45.900;5.946;2023-11-19T07:59:25;15.43;;;10.13;;
49310;SDS011;35177;45.900;5.946;2023-11-19T08:01:50;14.70;;;10.05;;
49310;SDS011;35177;45.900;5.946;2023-11-19T08:04:16;22.00;;;12.10;;
49310;SDS011;35177;45.900;5.946;2023-11-19T08:06:41;40.35;;;21.40;;
49310;SDS011;35177;45.900;5.946;2023-11-19T08:09:07;16.77;;;10.88;;
49310;SDS011;35177;45.900;5.946;2023-11-19T08:11:38;14.13;;;9.18;;
49310;SDS011;35177;45.900;5.946;2023-11-19T08:14:04;14.10;;;9.40;;
49310;SDS011;35177;45.900;5.946;2023-11-19T08:16:30;14.60;;;9.07;;
49310;SDS011;35177;45.900;5.946;2023-11-19T08:18:55;13.88;;;8.80;;
49310;SDS011;35177;45.900;5.946;2023-11-19T08:21:23;16.33;;;10.15;;
49310;SDS011;35177;45.900;5.946;2023-11-19T08:23:48;21.45;;;8.95;;
49310;SDS011;35177;45.900;5.946;2023-11-19T08:26:14;11.40;;;7.47;;
49310;SDS011;35177;45.900;5.946;2023-11-19T08:28:40;11.05;;;7.40;;
49310;SDS011;35177;45.900;5.946;2023-11-19T08:31:05;10.40;;;7.78;;
49310;SDS011;35177;45.900;5.946;2023-11-19T08:33:31;13.27;;;7.45;;
49310;SDS011;35177;45.900;5.946;2023-11-19T08:35:57;11.90;;;7.05;;
49310;SDS011;35177;45.900;5.946;2023-11-19T08:38:23;11.07;;;7.53;;
49310;SDS011;35177;45.900;5.946;2023-11-19T08:40:49;10.35;;;7.47;;
49310;SDS011;35177;45.900;5.946;2023-11-19T08:43:14;10.65;;;8.75;;
49310;SDS011;35177;45.900;5.946;2023-11-19T08:45:41;13.75;;;9.60;;
49310;SDS011;35177;45.900;5.946;2023-11-19T08:48:06;12.93;;;9.40;;
49310;SDS011;35177;45.900;5.946;2023-11-19T08:50:31;14.13;;;9.48;;
49310;SDS011;35177;45.900;5.946;2023-11-19T08:52:57;12.13;;;8.35;;
49310;SDS011;35177;45.900;5.946;2023-11-19T08:55:22;12.65;;;8.80;;
49310;SDS011;35177;45.900;5.946;2023-11-19T08:57:48;11.85;;;8.32;;
49310;SDS011;35177;45.900;5.946;2023-11-19T09:00:13;13.77;;;8.35;;
49310;SDS011;35177;45.900;5.946;2023-11-19T09:02:43;13.55;;;8.98;;
49310;SDS011;35177;45.900;5.946;2023-11-19T09:05:08;12.10;;;8.02;;
49310;SDS011;35177;45.900;5.946;2023-11-19T09:07:33;12.15;;;8.43;;
49310;SDS011;35177;45.900;5.946;2023-11-19T09:09:59;11.13;;;8.00;;
49310;SDS011;35177;45.900;5.946;2023-11-19T09:12:24;11.73;;;8.48;;
49310;SDS011;35177;45.900;5.946;2023-11-19T09:14:50;11.05;;;7.70;;
49310;SDS011;35177;45.900;5.946;2023-11-19T09:17:15;10.70;;;7.60;;
49310;SDS011;35177;45.900;5.946;2023-11-19T09:19:42;11.43;;;7.63;;
49310;SDS011;35177;45.900;5.946;2023-11-19T09:22:07;12.10;;;7.38;;
49310;SDS011;35177;45.900;5.946;2023-11-19T09:24:33;11.55;;;7.75;;
49310;SDS011;35177;45.900;5.946;2023-11-19T09:26:58;12.05;;;7.78;;
49310;SDS011;35177;45.900;5.946;2023-11-19T09:29:25;11.18;;;7.65;;
49310;SDS011;35177;45.900;5.946;2023-11-19T09:31:50;9.70;;;6.93;;
49310;SDS011;35177;45.900;5.946;2023-11-19T09:34:16;10.27;;;6.70;;
49310;SDS011;35177;45.900;5.946;2023-11-19T09:36:41;9.25;;;6.38;;
49310;SDS011;35177;45.900;5.946;2023-11-19T09:39:09;11.18;;;6.57;;
49310;SDS011;35177;45.900;5.946;2023-11-19T09:41:35;9.82;;;5.72;;
49310;SDS011;35177;45.900;5.946;2023-11-19T09:44:01;8.77;;;6.03;;
49310;SDS011;35177;45.900;5.946;2023-11-19T09:46:26;8.82;;;6.45;;
49310;SDS011;35177;45.900;5.946;2023-11-19T09:48:53;9.23;;;5.97;;
49310;SDS011;35177;45.900;5.946;2023-11-19T09:51:21;7.78;;;6.05;;
49310;SDS011;35177;45.900;5.946;2023-11-19T09:53:49;8.95;;;6.15;;
49310;SDS011;35177;45.900;5.946;2023-11-19T09:56:16;8.82;;;5.82;;
49310;SDS011;35177;45.900;5.946;2023-11-19T09:58:44;9.30;;;6.00;;
49310;SDS011;35177;45.900;5.946;2023-11-19T10:01:09;10.68;;;5.80;;
49310;SDS011;35177;45.900;5.946;2023-11-19T10:03:36;7.00;;;5.40;;
49310;SDS011;35177;45.900;5.946;2023-11-19T10:06:08;9.70;;;5.78;;
49310;SDS011;35177;45.900;5.946;2023-11-19T10:08:38;8.80;;;5.75;;
49310;SDS011;35177;45.900;5.946;2023-11-19T10:11:06;9.88;;;5.72;;
49310;SDS011;35177;45.900;5.946;2023-11-19T10:13:33;8.80;;;5.65;;
49310;SDS011;35177;45.900;5.946;2023-11-19T10:16:03;9.73;;;5.78;;
49310;SDS011;35177;45.900;5.946;2023-11-19T10:18:33;8.85;;;6.25;;
49310;SDS011;35177;45.900;5.946;2023-11-19T10:21:02;8.77;;;6.50;;
49310;SDS011;35177;45.900;5.946;2023-11-19T10:23:31;10.85;;;6.47;;
49310;SDS011;35177;45.900;5.946;2023-11-19T10:26:12;10.32;;;6.30;;
49310;SDS011;35177;45.900;5.946;2023-11-19T10:28:40;7.35;;;5.57;;
49310;SDS011;35177;45.900;5.946;2023-11-19T10:31:11;8.65;;;5.63;;
49310;SDS011;35177;45.900;5.946;2023-11-19T10:33:43;6.97;;;5.55;;
49310;SDS011;35177;45.900;5.946;2023-11-19T10:36:10;8.50;;;5.95;;
49310;SDS011;35177;45.900;5.946;2023-11-19T10:38:39;7.95;;;5.47;;
49310;SDS011;35177;45.900;5.946;2023-11-19T10:41:06;9.05;;;5.97;;
49310;SDS011;35177;45.900;5.946;2023-11-19T10:43:41;8.88;;;5.78;;
49310;SDS011;35177;45.900;5.946;2023-11-19T10:46:12;11.88;;;6.45;;
49310;SDS011;35177;45.900;5.946;2023-11-19T10:48:39;7.15;;;5.43;;
49310;SDS011;35177;45.900;5.946;2023-11-19T10:51:06;7.18;;;5.50;;
49310;SDS011;35177;45.900;5.946;2023-11-19T10:53:36;7.10;;;5.30;;
49310;SDS011;35177;45.900;5.946;2023-11-19T10:56:06;11.73;;;6.43;;
49310;SDS011;35177;45.900;5.946;2023-11-19T10:58:35;8.82;;;6.03;;
49310;SDS011;35177;45.900;5.946;2023-11-19T11:01:03;8.60;;;5.20;;
49310;SDS011;35177;45.900;5.946;2023-11-19T11:03:38;9.05;;;5.82;;
49310;SDS011;35177;45.900;5.946;2023-11-19T11:06:05;8.20;;;5.55;;
49310;SDS011;35177;45.900;5.946;2023-11-19T11:08:31;12.40;;;6.07;;
49310;SDS011;35177;45.900;5.946;2023-11-19T11:10:59;9.80;;;5.25;;
49310;SDS011;35177;45.900;5.946;2023-11-19T11:13:25;7.82;;;5.40;;
49310;SDS011;35177;45.900;5.946;2023-11-19T11:15:55;8.65;;;5.65;;
49310;SDS011;35177;45.900;5.946;2023-11-19T11:18:23;7.70;;;5.60;;
49310;SDS011;35177;45.900;5.946;2023-11-19T11:20:50;8.82;;;6.32;;
49310;SDS011;35177;45.900;5.946;2023-11-19T11:29:39;8.63;;;5.32;;
49310;SDS011;35177;45.900;5.946;2023-11-19T11:32:21;8.75;;;5.47;;
49310;SDS011;35177;45.900;5.946;2023-11-19T11:35:08;8.77;;;5.20;;
49310;SDS011;35177;45.900;5.946;2023-11-19T11:38:04;6.95;;;4.70;;
49310;SDS011;35177;45.900;5.946;2023-11-19T11:40:32;7.47;;;4.82;;
49310;SDS011;35177;45.900;5.946;2023-11-19T11:42:58;7.22;;;5.30;;
49310;SDS011;35177;45.900;5.946;2023-11-19T11:45:36;10.13;;;5.63;;
49310;SDS011;35177;45.900;5.946;2023-11-19T11:50:34;7.45;;;5.00;;
49310;SDS011;35177;45.900;5.946;2023-11-19T11:58:17;9.17;;;6.07;;
49310;SDS011;35177;45.900;5.946;2023-11-19T12:00:43;6.45;;;4.97;;
49310;SDS011;35177;45.900;5.946;2023-11-19T12:03:10;10.60;;;5.53;;
49310;SDS011;35177;45.900;5.946;2023-11-19T12:05:43;7.72;;;4.95;;
49310;SDS011;35177;45.900;5.946;2023-11-19T12:08:10;6.68;;;4.40;;
49310;SDS011;35177;45.900;5.946;2023-11-19T12:13:23;6.05;;;4.97;;
49310;SDS011;35177;45.900;5.946;2023-11-19T12:18:21;7.22;;;5.10;;
49310;SDS011;35177;45.900;5.946;2023-11-19T12:20:57;6.63;;;5.03;;
49310;SDS011;35177;45.900;5.946;2023-11-19T12:23:25;10.02;;;5.50;;
49310;SDS011;35177;45.900;5.946;2023-11-19T12:25:51;8.18;;;5.53;;
49310;SDS011;35177;45.900;5.946;2023-11-19T12:28:17;5.70;;;4.20;;
49310;SDS011;35177;45.900;5.946;2023-11-19T12:30:43;7.43;;;4.95;;
49310;SDS011;35177;45.900;5.946;2023-11-19T12:33:10;7.78;;;5.38;;
49310;SDS011;35177;45.900;5.946;2023-11-19T12:35:40;9.13;;;5.03;;
49310;SDS011;35177;45.900;5.946;2023-11-19T12:38:06;8.05;;;4.85;;
49310;SDS011;35177;45.900;5.946;2023-11-19T12:40:31;7.20;;;4.88;;
49310;SDS011;35177;45.900;5.946;2023-11-19T12:42:57;7.47;;;5.25;;
49310;SDS011;35177;45.900;5.946;2023-11-19T12:45:24;11.43;;;5.28;;
49310;SDS011;35177;45.900;5.946;2023-11-19T12:48:07;8.40;;;5.07;;
49310;SDS011;35177;45.900;5.946;2023-11-19T12:50:50;8.13;;;4.95;;
49310;SDS011;35177;45.900;5.946;2023-11-19T12:53:23;6.43;;;5.03;;
49310;SDS011;35177;45.900;5.946;2023-11-19T12:55:50;8.65;;;5.85;;
49310;SDS011;35177;45.900;5.946;2023-11-19T12:58:32;7.20;;;5.35;;
49310;SDS011;35177;45.900;5.946;2023-11-19T13:01:01;6.85;;;4.78;;
49310;SDS011;35177;45.900;5.946;2023-11-19T13:03:33;6.88;;;4.10;;
49310;SDS011;35177;45.900;5.946;2023-11-19T13:06:04;8.07;;;5.85;;
49310;SDS011;35177;45.900;5.946;2023-11-19T13:11:04;7.53;;;5.18;;
49310;SDS011;35177;45.900;5.946;2023-11-19T13:13:31;6.28;;;4.53;;
49310;SDS011;35177;45.900;5.946;2023-11-19T13:16:04;8.35;;;4.63;;
49310;SDS011;35177;45.900;5.946;2023-11-19T13:18:34;5.55;;;4.43;;
49310;SDS011;35177;45.900;5.946;2023-11-19T13:21:00;7.25;;;5.03;;
49310;SDS011;35177;45.900;5.946;2023-11-19T13:23:25;7.68;;;5.03;;
49310;SDS011;35177;45.900;5.946;2023-11-19T13:25:50;9.45;;;5.07;;
49310;SDS011;35177;45.900;5.946;2023-11-19T13:28:16;9.10;;;5.10;;
49310;SDS011;35177;45.900;5.946;2023-11-19T13:30:41;7.53;;;4.50;;
49310;SDS011;35177;45.900;5.946;2023-11-19T13:33:07;5.63;;;4.18;;
49310;SDS011;35177;45.900;5.946;2023-11-19T13:35:32;6.28;;;4.03;;
49310;SDS011;35177;45.900;5.946;2023-11-19T13:37:57;5.95;;;4.30;;
49310;SDS011;35177;45.900;5.946;2023-11-19T13:40:23;6.28;;;3.97;;
49310;SDS011;35177;45.900;5.946;2023-11-19T13:42:49;6.38;;;4.10;;
49310;SDS011;35177;45.900;5.946;2023-11-19T13:45:15;6.50;;;3.92;;
49310;SDS011;35177;45.900;5.946;2023-11-19T13:47:43;10.48;;;3.80;;
49310;SDS011;35177;45.900;5.946;2023-11-19T13:50:13;8.75;;;4.03;;
49310;SDS011;35177;45.900;5.946;2023-11-19T13:52:40;16.40;;;4.80;;
49310;SDS011;35177;45.900;5.946;2023-11-19T13:55:08;6.55;;;3.88;;
49310;SDS011;35177;45.900;5.946;2023-11-19T13:57:37;8.05;;;4.40;;
49310;SDS011;35177;45.900;5.946;2023-11-19T14:00:04;6.57;;;4.38;;
49310;SDS011;35177;45.900;5.946;2023-11-19T14:02:32;5.95;;;4.53;;
49310;SDS011;35177;45.900;5.946;2023-11-19T14:04:58;8.98;;;4.38;;
49310;SDS011;35177;45.900;5.946;2023-11-19T14:07:23;12.40;;;4.38;;
49310;SDS011;35177;45.900;5.946;2023-11-19T14:09:49;6.93;;;4.05;;
49310;SDS011;35177;45.900;5.946;2023-11-19T14:12:15;7.13;;;4.20;;
49310;SDS011;35177;45.900;5.946;2023-11-19T14:14:40;7.07;;;4.60;;
49310;SDS011;35177;45.900;5.946;2023-11-19T14:17:07;9.00;;;4.55;;
49310;SDS011;35177;45.900;5.946;2023-11-19T14:19:32;41.35;;;5.75;;
49310;SDS011;35177;45.900;5.946;2023-11-19T14:21:58;11.05;;;4.80;;
49310;SDS011;35177;45.900;5.946;2023-11-19T14:24:24;6.53;;;4.47;;
49310;SDS011;35177;45.900;5.946;2023-11-19T14:26:50;8.25;;;5.05;;
49310;SDS011;35177;45.900;5.946;2023-11-19T14:29:16;8.27;;;5.03;;
49310;SDS011;35177;45.900;5.946;2023-11-19T14:31:42;6.60;;;4.55;;
49310;SDS011;35177;45.900;5.946;2023-11-19T14:34:08;8.63;;;5.40;;
49310;SDS011;35177;45.900;5.946;2023-11-19T14:36:33;10.23;;;5.28;;
49310;SDS011;35177;45.900;5.946;2023-11-19T14:39:00;8.35;;;5.03;;
49310;SDS011;35177;45.900;5.946;2023-11-19T14:41:25;10.98;;;5.35;;
49310;SDS011;35177;45.900;5.946;2023-11-19T14:43:51;8.48;;;5.32;;
49310;SDS011;35177;45.900;5.946;2023-11-19T14:46:16;9.38;;;5.05;;
49310;SDS011;35177;45.900;5.946;2023-11-19T14:48:42;6.82;;;4.90;;
49310;SDS011;35177;45.900;5.946;2023-11-19T14:51:07;8.82;;;5.43;;
49310;SDS011;35177;45.900;5.946;2023-11-19T14:53:33;6.15;;;4.40;;
49310;SDS011;35177;45.900;5.946;2023-11-19T14:55:59;6.30;;;4.15;;
49310;SDS011;35177;45.900;5.946;2023-11-19T14:58:25;6.95;;;4.65;;
49310;SDS011;35177;45.900;5.946;2023-11-19T15:00:51;7.35;;;4.60;;